sensor_id;sensor_type;location;lat;lon;timestamp;temperature;humidity
19044;DHT22;9654;52.302;8.120;2022-10-14T00:00:45;12.60;99.90
19044;DHT22;9654;52.302;8.120;2022-10-14T00:03:12;12.60;99.90
19044;DHT22;9654;52.302;8.120;2022-10-14T00:05:40;12.60;99.90
19044;DHT22;9654;52.302;8.120;2022-10-14T00:08:07;12.60;99.90
19044;DHT22;9654;52.302;8.120;2022-10-14T00:10:36;12.50;99.90
19044;DHT22;9654;52.302;8.120;2022-10-14T00:13:04;12.50;99.90
19044;DHT22;9654;52.302;8.120;2022-10-14T00:15:36;12.50;99.90
19044;DHT22;9654;52.302;8.120;2022-10-14T00:18:03;12.50;99.90
19044;DHT22;9654;52.302;8.120;2022-10-14T00:20:31;12.50;99.90
19044;DHT22;9654;52.302;8.120;2022-10-14T00:22:57;12.50;99.90
19044;DHT22;9654;52.302;8.120;2022-10-14T00:25:24;12.50;99.90
19044;DHT22;9654;52.302;8.120;2022-10-14T00:27:52;12.50;99.90
19044;DHT22;9654;52.302;8.120;2022-10-14T00:30:19;12.50;99.90
19044;DHT22;9654;52.302;8.120;2022-10-14T00:32:47;12.50;99.90
19044;DHT22;9654;52.302;8.120;2022-10-14T00:35:14;12.50;99.90
19044;DHT22;9654;52.302;8.120;2022-10-14T00:37:40;12.40;99.90
19044;DHT22;9654;52.302;8.120;2022-10-14T00:40:08;12.40;99.90
19044;DHT22;9654;52.302;8.120;2022-10-14T00:42:35;12.40;99.90
19044;DHT22;9654;52.302;8.120;2022-10-14T00:45:06;12.30;99.90
19044;DHT22;9654;52.302;8.120;2022-10-14T00:47:33;12.30;99.90
19044;DHT22;9654;52.302;8.120;2022-10-14T00:50:02;12.30;99.90
19044;DHT22;9654;52.302;8.120;2022-10-14T00:52:29;12.30;99.90
19044;DHT22;9654;52.302;8.120;2022-10-14T00:54:59;12.20;99.90
19044;DHT22;9654;52.302;8.120;2022-10-14T00:57:27;12.20;99.90
19044;DHT22;9654;52.302;8.120;2022-10-14T01:00:00;12.20;99.90
19044;DHT22;9654;52.302;8.120;2022-10-14T01:02:28;12.20;99.90
19044;DHT22;9654;52.302;8.120;2022-10-14T01:04:54;12.20;99.90
19044;DHT22;9654;52.302;8.120;2022-10-14T01:07:30;12.20;99.90
19044;DHT22;9654;52.302;8.120;2022-10-14T01:10:02;12.10;99.90
19044;DHT22;9654;52.302;8.120;2022-10-14T01:12:35;12.10;99.90
19044;DHT22;9654;52.302;8.120;2022-10-14T01:15:13;12.10;99.90
19044;DHT22;9654;52.302;8.120;2022-10-14T01:17:48;12.10;99.90
19044;DHT22;9654;52.302;8.120;2022-10-14T01:20:56;12.00;99.90
19044;DHT22;9654;52.302;8.120;2022-10-14T01:27:09;11.90;99.90
19044;DHT22;9654;52.302;8.120;2022-10-14T01:30:08;11.80;99.90
19044;DHT22;9654;52.302;8.120;2022-10-14T01:32:48;11.70;99.90
19044;DHT22;9654;52.302;8.120;2022-10-14T01:35:22;11.70;99.90
19044;DHT22;9654;52.302;8.120;2022-10-14T01:37:54;11.60;99.90
19044;DHT22;9654;52.302;8.120;2022-10-14T01:40:26;11.60;99.90
19044;DHT22;9654;52.302;8.120;2022-10-14T01:42:54;11.50;99.90
19044;DHT22;9654;52.302;8.120;2022-10-14T01:45:24;11.50;99.90
19044;DHT22;9654;52.302;8.120;2022-10-14T01:47:53;11.40;99.90
19044;DHT22;9654;52.302;8.120;2022-10-14T01:50:23;11.40;99.90
19044;DHT22;9654;52.302;8.120;2022-10-14T01:52:53;11.40;99.90
19044;DHT22;9654;52.302;8.120;2022-10-14T01:55:24;11.40;99.90
19044;DHT22;9654;52.302;8.120;2022-10-14T01:57:53;11.30;99.90
19044;DHT22;9654;52.302;8.120;2022-10-14T02:00:23;11.30;99.90
19044;DHT22;9654;52.302;8.120;2022-10-14T02:02:50;11.20;99.90
19044;DHT22;9654;52.302;8.120;2022-10-14T02:05:20;11.20;99.90
19044;DHT22;9654;52.302;8.120;2022-10-14T02:07:51;11.20;99.90
19044;DHT22;9654;52.302;8.120;2022-10-14T02:10:28;11.20;99.90
19044;DHT22;9654;52.302;8.120;2022-10-14T02:13:06;11.10;99.90
19044;DHT22;9654;52.302;8.120;2022-10-14T02:15:45;11.20;99.90
19044;DHT22;9654;52.302;8.120;2022-10-14T02:18:21;11.20;99.90
19044;DHT22;9654;52.302;8.120;2022-10-14T02:20:54;11.20;99.90
19044;DHT22;9654;52.302;8.120;2022-10-14T02:23:26;11.20;99.90
19044;DHT22;9654;52.302;8.120;2022-10-14T02:25:56;11.20;99.90
19044;DHT22;9654;52.302;8.120;2022-10-14T02:28:25;11.20;99.90
19044;DHT22;9654;52.302;8.120;2022-10-14T02:30:56;11.20;99.90
19044;DHT22;9654;52.302;8.120;2022-10-14T02:33:29;11.20;99.90
19044;DHT22;9654;52.302;8.120;2022-10-14T02:35:58;11.10;99.90
19044;DHT22;9654;52.302;8.120;2022-10-14T02:38:27;11.10;99.90
19044;DHT22;9654;52.302;8.120;2022-10-14T02:40:56;11.10;99.90
19044;DHT22;9654;52.302;8.120;2022-10-14T02:43:25;11.10;99.90
19044;DHT22;9654;52.302;8.120;2022-10-14T02:45:57;11.10;99.90
19044;DHT22;9654;52.302;8.120;2022-10-14T02:48:24;11.10;99.90
19044;DHT22;9654;52.302;8.120;2022-10-14T02:50:51;11.20;99.90
19044;DHT22;9654;52.302;8.120;2022-10-14T02:53:17;11.20;99.90
19044;DHT22;9654;52.302;8.120;2022-10-14T02:55:45;11.20;99.90
19044;DHT22;9654;52.302;8.120;2022-10-14T02:58:11;11.20;99.90
19044;DHT22;9654;52.302;8.120;2022-10-14T03:00:38;11.20;99.90
19044;DHT22;9654;52.302;8.120;2022-10-14T03:03:06;11.20;99.90
19044;DHT22;9654;52.302;8.120;2022-10-14T03:05:33;11.20;99.90
19044;DHT22;9654;52.302;8.120;2022-10-14T03:08:00;11.30;99.90
19044;DHT22;9654;52.302;8.120;2022-10-14T03:10:27;11.20;99.90
19044;DHT22;9654;52.302;8.120;2022-10-14T03:12:53;11.20;99.90
19044;DHT22;9654;52.302;8.120;2022-10-14T03:15:20;11.20;99.90
19044;DHT22;9654;52.302;8.120;2022-10-14T03:17:47;11.20;99.90
19044;DHT22;9654;52.302;8.120;2022-10-14T03:20:15;11.10;99.90
19044;DHT22;9654;52.302;8.120;2022-10-14T03:22:42;11.10;99.90
19044;DHT22;9654;52.302;8.120;2022-10-14T03:25:09;11.10;99.90
19044;DHT22;9654;52.302;8.120;2022-10-14T03:27:36;11.10;99.90
19044;DHT22;9654;52.302;8.120;2022-10-14T03:30:04;11.00;99.90
19044;DHT22;9654;52.302;8.120;2022-10-14T03:32:30;11.00;99.90
19044;DHT22;9654;52.302;8.120;2022-10-14T03:34:57;11.00;99.90
19044;DHT22;9654;52.302;8.120;2022-10-14T03:37:25;11.00;99.90
19044;DHT22;9654;52.302;8.120;2022-10-14T03:39:52;11.00;99.90
19044;DHT22;9654;52.302;8.120;2022-10-14T03:42:19;11.00;99.90
19044;DHT22;9654;52.302;8.120;2022-10-14T03:44:45;11.10;99.90
19044;DHT22;9654;52.302;8.120;2022-10-14T03:47:12;11.00;99.90
19044;DHT22;9654;52.302;8.120;2022-10-14T03:49:39;11.10;99.90
19044;DHT22;9654;52.302;8.120;2022-10-14T03:52:06;11.10;99.90
19044;DHT22;9654;52.302;8.120;2022-10-14T03:54:34;11.10;99.90
19044;DHT22;9654;52.302;8.120;2022-10-14T03:57:00;11.10;99.90
19044;DHT22;9654;52.302;8.120;2022-10-14T03:59:27;11.10;99.90
19044;DHT22;9654;52.302;8.120;2022-10-14T04:01:54;11.20;99.90
19044;DHT22;9654;52.302;8.120;2022-10-14T04:04:21;11.10;99.90
19044;DHT22;9654;52.302;8.120;2022-10-14T04:06:47;11.20;99.90
19044;DHT22;9654;52.302;8.120;2022-10-14T04:09:14;11.10;99.90
19044;DHT22;9654;52.302;8.120;2022-10-14T04:11:42;11.10;99.90
19044;DHT22;9654;52.302;8.120;2022-10-14T04:14:09;11.10;99.90
19044;DHT22;9654;52.302;8.120;2022-10-14T04:16:36;11.00;99.90
19044;DHT22;9654;52.302;8.120;2022-10-14T04:19:02;11.00;99.90
19044;DHT22;9654;52.302;8.120;2022-10-14T04:21:29;11.00;99.90
19044;DHT22;9654;52.302;8.120;2022-10-14T04:23:56;10.90;99.90
19044;DHT22;9654;52.302;8.120;2022-10-14T04:26:22;10.90;99.90
19044;DHT22;9654;52.302;8.120;2022-10-14T04:28:50;10.80;99.90
19044;DHT22;9654;52.302;8.120;2022-10-14T04:31:17;10.80;99.90
19044;DHT22;9654;52.302;8.120;2022-10-14T04:33:44;10.70;99.90
19044;DHT22;9654;52.302;8.120;2022-10-14T04:36:10;10.70;99.90
19044;DHT22;9654;52.302;8.120;2022-10-14T04:38:37;10.70;99.90
19044;DHT22;9654;52.302;8.120;2022-10-14T04:41:04;10.70;99.90
19044;DHT22;9654;52.302;8.120;2022-10-14T04:43:31;10.70;99.90
19044;DHT22;9654;52.302;8.120;2022-10-14T04:45:59;10.70;99.90
19044;DHT22;9654;52.302;8.120;2022-10-14T04:48:26;10.70;99.90
19044;DHT22;9654;52.302;8.120;2022-10-14T04:50:53;10.70;99.90
19044;DHT22;9654;52.302;8.120;2022-10-14T04:53:20;10.60;99.90
19044;DHT22;9654;52.302;8.120;2022-10-14T04:55:47;10.60;99.90
19044;DHT22;9654;52.302;8.120;2022-10-14T04:58:14;10.60;99.90
19044;DHT22;9654;52.302;8.120;2022-10-14T05:00:41;10.60;99.90
19044;DHT22;9654;52.302;8.120;2022-10-14T05:03:09;10.60;99.90
19044;DHT22;9654;52.302;8.120;2022-10-14T05:05:36;10.60;99.90
19044;DHT22;9654;52.302;8.120;2022-10-14T05:08:03;10.60;99.90
19044;DHT22;9654;52.302;8.120;2022-10-14T05:10:30;10.60;99.90
19044;DHT22;9654;52.302;8.120;2022-10-14T05:12:57;10.70;99.90
19044;DHT22;9654;52.302;8.120;2022-10-14T05:15:23;10.60;99.90
19044;DHT22;9654;52.302;8.120;2022-10-14T05:17:50;10.60;99.90
19044;DHT22;9654;52.302;8.120;2022-10-14T05:20:18;10.60;99.90
19044;DHT22;9654;52.302;8.120;2022-10-14T05:22:45;10.60;99.90
19044;DHT22;9654;52.302;8.120;2022-10-14T05:25:12;10.60;99.90
19044;DHT22;9654;52.302;8.120;2022-10-14T05:27:39;10.60;99.90
19044;DHT22;9654;52.302;8.120;2022-10-14T05:30:06;10.50;99.90
19044;DHT22;9654;52.302;8.120;2022-10-14T05:33:01;10.50;99.90
19044;DHT22;9654;52.302;8.120;2022-10-14T05:35:29;10.50;99.90
19044;DHT22;9654;52.302;8.120;2022-10-14T05:37:56;10.50;99.90
19044;DHT22;9654;52.302;8.120;2022-10-14T05:40:23;10.50;99.90
19044;DHT22;9654;52.302;8.120;2022-10-14T05:42:50;10.40;99.90
19044;DHT22;9654;52.302;8.120;2022-10-14T05:45:16;10.40;99.90
19044;DHT22;9654;52.302;8.120;2022-10-14T05:47:43;10.40;99.90
19044;DHT22;9654;52.302;8.120;2022-10-14T05:50:11;10.30;99.90
19044;DHT22;9654;52.302;8.120;2022-10-14T05:52:39;10.30;99.90
19044;DHT22;9654;52.302;8.120;2022-10-14T05:55:07;10.30;99.90
19044;DHT22;9654;52.302;8.120;2022-10-14T05:57:34;10.30;99.90
19044;DHT22;9654;52.302;8.120;2022-10-14T06:00:03;10.20;99.90
19044;DHT22;9654;52.302;8.120;2022-10-14T06:02:30;10.30;99.90
19044;DHT22;9654;52.302;8.120;2022-10-14T06:04:57;10.20;99.90
19044;DHT22;9654;52.302;8.120;2022-10-14T06:07:24;10.20;99.90
19044;DHT22;9654;52.302;8.120;2022-10-14T06:09:52;10.20;99.90
19044;DHT22;9654;52.302;8.120;2022-10-14T06:12:19;10.20;99.90
19044;DHT22;9654;52.302;8.120;2022-10-14T06:14:45;10.30;99.90
19044;DHT22;9654;52.302;8.120;2022-10-14T06:17:12;10.20;99.90
19044;DHT22;9654;52.302;8.120;2022-10-14T06:19:39;10.30;99.90
19044;DHT22;9654;52.302;8.120;2022-10-14T06:22:05;10.30;99.90
19044;DHT22;9654;52.302;8.120;2022-10-14T06:24:32;10.30;99.90
19044;DHT22;9654;52.302;8.120;2022-10-14T06:27:00;10.30;99.90
19044;DHT22;9654;52.302;8.120;2022-10-14T06:29:27;10.30;99.90
19044;DHT22;9654;52.302;8.120;2022-10-14T06:31:57;10.30;99.90
19044;DHT22;9654;52.302;8.120;2022-10-14T06:34:23;10.30;99.90
19044;DHT22;9654;52.302;8.120;2022-10-14T06:36:50;10.40;99.90
19044;DHT22;9654;52.302;8.120;2022-10-14T06:39:17;10.40;99.90
19044;DHT22;9654;52.302;8.120;2022-10-14T06:41:44;10.50;99.90
19044;DHT22;9654;52.302;8.120;2022-10-14T06:44:12;10.50;99.90
19044;DHT22;9654;52.302;8.120;2022-10-14T06:46:40;10.60;99.90
19044;DHT22;9654;52.302;8.120;2022-10-14T06:49:07;10.60;99.90
19044;DHT22;9654;52.302;8.120;2022-10-14T06:51:34;10.70;99.90
19044;DHT22;9654;52.302;8.120;2022-10-14T06:54:02;10.70;99.90
19044;DHT22;9654;52.302;8.120;2022-10-14T06:56:29;10.80;99.90
19044;DHT22;9654;52.302;8.120;2022-10-14T06:58:56;10.80;99.90
19044;DHT22;9654;52.302;8.120;2022-10-14T07:01:24;10.80;99.90
19044;DHT22;9654;52.302;8.120;2022-10-14T07:03:51;10.80;99.90
19044;DHT22;9654;52.302;8.120;2022-10-14T07:06:17;10.70;99.90
19044;DHT22;9654;52.302;8.120;2022-10-14T07:08:44;10.80;99.90
19044;DHT22;9654;52.302;8.120;2022-10-14T07:11:11;10.80;99.90
19044;DHT22;9654;52.302;8.120;2022-10-14T07:13:38;10.90;99.90
19044;DHT22;9654;52.302;8.120;2022-10-14T07:16:05;11.00;99.90
19044;DHT22;9654;52.302;8.120;2022-10-14T07:18:33;11.00;99.90
19044;DHT22;9654;52.302;8.120;2022-10-14T07:21:03;11.10;99.90
19044;DHT22;9654;52.302;8.120;2022-10-14T07:23:31;11.20;99.90
19044;DHT22;9654;52.302;8.120;2022-10-14T07:25:58;11.30;99.90
19044;DHT22;9654;52.302;8.120;2022-10-14T07:28:25;11.30;99.90
19044;DHT22;9654;52.302;8.120;2022-10-14T07:30:56;11.40;99.90
19044;DHT22;9654;52.302;8.120;2022-10-14T07:33:23;11.50;99.90
19044;DHT22;9654;52.302;8.120;2022-10-14T07:35:52;11.60;99.90
19044;DHT22;9654;52.302;8.120;2022-10-14T07:38:18;11.60;99.90
19044;DHT22;9654;52.302;8.120;2022-10-14T07:40:55;11.70;99.90
19044;DHT22;9654;52.302;8.120;2022-10-14T07:43:22;11.70;99.90
19044;DHT22;9654;52.302;8.120;2022-10-14T07:45:49;11.70;99.90
19044;DHT22;9654;52.302;8.120;2022-10-14T07:48:16;11.80;99.90
19044;DHT22;9654;52.302;8.120;2022-10-14T07:50:43;11.80;99.90
19044;DHT22;9654;52.302;8.120;2022-10-14T07:53:15;11.90;99.90
19044;DHT22;9654;52.302;8.120;2022-10-14T07:55:43;12.00;99.90
19044;DHT22;9654;52.302;8.120;2022-10-14T07:58:17;12.10;99.90
19044;DHT22;9654;52.302;8.120;2022-10-14T08:00:44;12.30;99.90
19044;DHT22;9654;52.302;8.120;2022-10-14T08:03:11;12.40;99.90
19044;DHT22;9654;52.302;8.120;2022-10-14T08:05:38;12.50;99.90
19044;DHT22;9654;52.302;8.120;2022-10-14T08:08:05;12.50;99.90
19044;DHT22;9654;52.302;8.120;2022-10-14T08:10:33;12.60;99.90
19044;DHT22;9654;52.302;8.120;2022-10-14T08:13:00;12.60;99.90
19044;DHT22;9654;52.302;8.120;2022-10-14T08:15:27;12.70;99.90
19044;DHT22;9654;52.302;8.120;2022-10-14T08:17:54;12.70;99.90
19044;DHT22;9654;52.302;8.120;2022-10-14T08:20:21;12.70;99.90
19044;DHT22;9654;52.302;8.120;2022-10-14T08:22:48;12.80;99.90
19044;DHT22;9654;52.302;8.120;2022-10-14T08:25:15;12.80;99.90
19044;DHT22;9654;52.302;8.120;2022-10-14T08:27:43;12.90;99.90
19044;DHT22;9654;52.302;8.120;2022-10-14T08:30:10;12.90;99.90
19044;DHT22;9654;52.302;8.120;2022-10-14T08:32:37;13.00;99.90
19044;DHT22;9654;52.302;8.120;2022-10-14T08:35:04;13.10;99.90
19044;DHT22;9654;52.302;8.120;2022-10-14T08:37:31;13.20;99.90
19044;DHT22;9654;52.302;8.120;2022-10-14T08:39:58;13.30;99.90
19044;DHT22;9654;52.302;8.120;2022-10-14T08:42:38;13.40;99.90
19044;DHT22;9654;52.302;8.120;2022-10-14T08:45:14;13.40;99.90
19044;DHT22;9654;52.302;8.120;2022-10-14T08:47:45;13.50;99.90
19044;DHT22;9654;52.302;8.120;2022-10-14T08:50:21;13.50;99.90
19044;DHT22;9654;52.302;8.120;2022-10-14T08:52:52;13.50;99.90
19044;DHT22;9654;52.302;8.120;2022-10-14T08:55:27;13.60;99.90
19044;DHT22;9654;52.302;8.120;2022-10-14T08:57:59;13.60;99.90
19044;DHT22;9654;52.302;8.120;2022-10-14T09:00:30;13.80;99.90
19044;DHT22;9654;52.302;8.120;2022-10-14T09:03:00;13.70;99.90
19044;DHT22;9654;52.302;8.120;2022-10-14T09:05:27;13.80;99.90
19044;DHT22;9654;52.302;8.120;2022-10-14T09:07:55;13.80;99.90
19044;DHT22;9654;52.302;8.120;2022-10-14T09:10:28;13.90;99.90
19044;DHT22;9654;52.302;8.120;2022-10-14T09:13:02;14.00;99.90
19044;DHT22;9654;52.302;8.120;2022-10-14T09:15:39;14.00;99.90
19044;DHT22;9654;52.302;8.120;2022-10-14T09:18:14;14.10;99.90
19044;DHT22;9654;52.302;8.120;2022-10-14T09:20:43;14.20;99.90
19044;DHT22;9654;52.302;8.120;2022-10-14T09:23:15;14.30;99.90
19044;DHT22;9654;52.302;8.120;2022-10-14T09:25:48;14.30;99.90
19044;DHT22;9654;52.302;8.120;2022-10-14T09:28:16;14.40;99.90
19044;DHT22;9654;52.302;8.120;2022-10-14T09:30:45;14.30;99.90
19044;DHT22;9654;52.302;8.120;2022-10-14T09:33:15;14.30;99.90
19044;DHT22;9654;52.302;8.120;2022-10-14T09:35:45;14.40;99.90
19044;DHT22;9654;52.302;8.120;2022-10-14T09:38:13;14.40;99.90
19044;DHT22;9654;52.302;8.120;2022-10-14T09:40:43;14.40;99.90
19044;DHT22;9654;52.302;8.120;2022-10-14T09:43:14;14.40;99.90
19044;DHT22;9654;52.302;8.120;2022-10-14T09:45:55;14.50;99.90
19044;DHT22;9654;52.302;8.120;2022-10-14T09:48:32;14.50;99.90
19044;DHT22;9654;52.302;8.120;2022-10-14T09:51:04;14.50;99.90
19044;DHT22;9654;52.302;8.120;2022-10-14T09:53:33;14.50;99.90
19044;DHT22;9654;52.302;8.120;2022-10-14T09:56:03;14.60;99.90
19044;DHT22;9654;52.302;8.120;2022-10-14T09:58:34;14.60;99.90
19044;DHT22;9654;52.302;8.120;2022-10-14T10:01:03;14.60;99.90
19044;DHT22;9654;52.302;8.120;2022-10-14T10:03:31;14.60;99.90
19044;DHT22;9654;52.302;8.120;2022-10-14T10:06:02;14.60;99.90
19044;DHT22;9654;52.302;8.120;2022-10-14T10:08:30;14.60;99.90
19044;DHT22;9654;52.302;8.120;2022-10-14T10:10:59;14.60;99.90
19044;DHT22;9654;52.302;8.120;2022-10-14T10:13:36;14.60;99.90
19044;DHT22;9654;52.302;8.120;2022-10-14T10:16:09;14.90;99.90
19044;DHT22;9654;52.302;8.120;2022-10-14T10:18:43;15.00;99.90
19044;DHT22;9654;52.302;8.120;2022-10-14T10:21:15;15.20;99.90
19044;DHT22;9654;52.302;8.120;2022-10-14T10:23:50;15.30;99.90
19044;DHT22;9654;52.302;8.120;2022-10-14T10:26:18;15.40;99.90
19044;DHT22;9654;52.302;8.120;2022-10-14T10:28:48;15.40;99.90
19044;DHT22;9654;52.302;8.120;2022-10-14T10:31:31;15.40;99.90
19044;DHT22;9654;52.302;8.120;2022-10-14T10:34:08;15.50;99.90
19044;DHT22;9654;52.302;8.120;2022-10-14T10:36:42;15.60;99.90
19044;DHT22;9654;52.302;8.120;2022-10-14T10:39:23;15.70;99.90
19044;DHT22;9654;52.302;8.120;2022-10-14T10:42:01;15.90;99.90
19044;DHT22;9654;52.302;8.120;2022-10-14T10:44:48;15.80;99.90
19044;DHT22;9654;52.302;8.120;2022-10-14T10:47:31;15.90;99.90
19044;DHT22;9654;52.302;8.120;2022-10-14T10:50:24;16.00;99.90
19044;DHT22;9654;52.302;8.120;2022-10-14T10:53:24;16.10;99.90
19044;DHT22;9654;52.302;8.120;2022-10-14T10:56:02;16.50;99.90
19044;DHT22;9654;52.302;8.120;2022-10-14T10:58:40;16.70;99.90
19044;DHT22;9654;52.302;8.120;2022-10-14T11:01:16;16.80;99.90
19044;DHT22;9654;52.302;8.120;2022-10-14T11:03:55;16.80;99.90
19044;DHT22;9654;52.302;8.120;2022-10-14T11:06:29;16.60;99.90
19044;DHT22;9654;52.302;8.120;2022-10-14T11:09:20;16.50;99.90
19044;DHT22;9654;52.302;8.120;2022-10-14T11:12:12;16.60;99.90
19044;DHT22;9654;52.302;8.120;2022-10-14T11:17:47;16.80;99.90
19044;DHT22;9654;52.302;8.120;2022-10-14T11:20:26;16.80;99.90
19044;DHT22;9654;52.302;8.120;2022-10-14T11:23:11;16.80;99.90
19044;DHT22;9654;52.302;8.120;2022-10-14T11:25:44;16.80;99.90
19044;DHT22;9654;52.302;8.120;2022-10-14T11:28:18;16.80;99.90
19044;DHT22;9654;52.302;8.120;2022-10-14T11:30:52;16.90;99.90
19044;DHT22;9654;52.302;8.120;2022-10-14T11:33:32;16.80;99.90
19044;DHT22;9654;52.302;8.120;2022-10-14T11:36:15;16.70;99.90
19044;DHT22;9654;52.302;8.120;2022-10-14T11:39:01;16.70;99.90
19044;DHT22;9654;52.302;8.120;2022-10-14T11:41:37;16.60;99.90
19044;DHT22;9654;52.302;8.120;2022-10-14T11:44:13;16.60;99.90
19044;DHT22;9654;52.302;8.120;2022-10-14T11:46:44;16.70;99.90
19044;DHT22;9654;52.302;8.120;2022-10-14T11:49:17;16.80;99.90
19044;DHT22;9654;52.302;8.120;2022-10-14T11:51:51;16.90;99.90
19044;DHT22;9654;52.302;8.120;2022-10-14T11:54:25;17.00;99.90
19044;DHT22;9654;52.302;8.120;2022-10-14T11:56:56;17.00;99.90
19044;DHT22;9654;52.302;8.120;2022-10-14T12:02:30;16.90;99.90
19044;DHT22;9654;52.302;8.120;2022-10-14T12:05:05;16.80;99.90
19044;DHT22;9654;52.302;8.120;2022-10-14T12:07:37;16.70;99.90
19044;DHT22;9654;52.302;8.120;2022-10-14T12:10:12;16.80;99.90
19044;DHT22;9654;52.302;8.120;2022-10-14T12:12:41;16.90;99.90
19044;DHT22;9654;52.302;8.120;2022-10-14T12:15:14;17.10;99.90
19044;DHT22;9654;52.302;8.120;2022-10-14T12:17:45;17.30;99.90
19044;DHT22;9654;52.302;8.120;2022-10-14T12:20:22;17.40;99.90
19044;DHT22;9654;52.302;8.120;2022-10-14T12:22:55;17.50;99.90
19044;DHT22;9654;52.302;8.120;2022-10-14T12:25:24;17.60;99.90
19044;DHT22;9654;52.302;8.120;2022-10-14T12:27:53;17.50;99.90
19044;DHT22;9654;52.302;8.120;2022-10-14T12:30:36;17.40;99.90
19044;DHT22;9654;52.302;8.120;2022-10-14T12:33:04;17.40;99.90
19044;DHT22;9654;52.302;8.120;2022-10-14T12:35:47;17.30;99.90
19044;DHT22;9654;52.302;8.120;2022-10-14T12:38:16;17.20;99.90
19044;DHT22;9654;52.302;8.120;2022-10-14T12:40:43;17.20;99.90
19044;DHT22;9654;52.302;8.120;2022-10-14T12:43:15;17.10;99.90
19044;DHT22;9654;52.302;8.120;2022-10-14T12:46:01;17.10;99.90
19044;DHT22;9654;52.302;8.120;2022-10-14T12:48:31;17.10;99.90
19044;DHT22;9654;52.302;8.120;2022-10-14T12:51:09;17.00;99.90
19044;DHT22;9654;52.302;8.120;2022-10-14T12:53:39;16.90;99.90
19044;DHT22;9654;52.302;8.120;2022-10-14T12:56:28;16.90;99.90
19044;DHT22;9654;52.302;8.120;2022-10-14T12:58:57;16.80;99.90
19044;DHT22;9654;52.302;8.120;2022-10-14T13:01:26;16.70;99.90
19044;DHT22;9654;52.302;8.120;2022-10-14T13:03:56;16.60;99.90
19044;DHT22;9654;52.302;8.120;2022-10-14T13:06:33;16.60;99.90
19044;DHT22;9654;52.302;8.120;2022-10-14T13:09:35;16.50;99.90
19044;DHT22;9654;52.302;8.120;2022-10-14T13:12:38;16.50;99.90
19044;DHT22;9654;52.302;8.120;2022-10-14T13:15:34;16.50;99.90
19044;DHT22;9654;52.302;8.120;2022-10-14T13:21:06;16.60;99.90
19044;DHT22;9654;52.302;8.120;2022-10-14T13:23:40;16.60;99.90
19044;DHT22;9654;52.302;8.120;2022-10-14T13:26:19;16.70;99.90
19044;DHT22;9654;52.302;8.120;2022-10-14T13:28:56;16.60;99.90
19044;DHT22;9654;52.302;8.120;2022-10-14T13:31:30;16.60;99.90
19044;DHT22;9654;52.302;8.120;2022-10-14T13:34:10;16.60;99.90
19044;DHT22;9654;52.302;8.120;2022-10-14T13:36:44;16.60;99.90
19044;DHT22;9654;52.302;8.120;2022-10-14T13:39:13;16.60;99.90
19044;DHT22;9654;52.302;8.120;2022-10-14T13:41:42;16.60;99.90
19044;DHT22;9654;52.302;8.120;2022-10-14T13:44:10;16.60;99.90
19044;DHT22;9654;52.302;8.120;2022-10-14T13:46:40;16.60;99.90
19044;DHT22;9654;52.302;8.120;2022-10-14T13:49:13;16.60;99.90
19044;DHT22;9654;52.302;8.120;2022-10-14T13:51:43;16.60;99.90
19044;DHT22;9654;52.302;8.120;2022-10-14T13:54:17;16.60;99.90
19044;DHT22;9654;52.302;8.120;2022-10-14T13:56:56;16.60;99.90
19044;DHT22;9654;52.302;8.120;2022-10-14T13:59:24;16.60;99.90
19044;DHT22;9654;52.302;8.120;2022-10-14T14:01:54;16.60;99.90
19044;DHT22;9654;52.302;8.120;2022-10-14T14:04:23;16.50;99.90
19044;DHT22;9654;52.302;8.120;2022-10-14T14:06:50;16.50;99.90
19044;DHT22;9654;52.302;8.120;2022-10-14T14:09:20;16.50;99.90
19044;DHT22;9654;52.302;8.120;2022-10-14T14:11:49;16.50;99.90
19044;DHT22;9654;52.302;8.120;2022-10-14T14:14:20;16.40;99.90
19044;DHT22;9654;52.302;8.120;2022-10-14T14:16:51;16.40;99.90
19044;DHT22;9654;52.302;8.120;2022-10-14T14:19:20;16.40;99.90
19044;DHT22;9654;52.302;8.120;2022-10-14T14:21:47;16.30;99.90
19044;DHT22;9654;52.302;8.120;2022-10-14T14:24:21;16.30;99.90
19044;DHT22;9654;52.302;8.120;2022-10-14T14:26:48;16.30;99.90
19044;DHT22;9654;52.302;8.120;2022-10-14T14:29:20;16.30;99.90
19044;DHT22;9654;52.302;8.120;2022-10-14T14:31:48;16.30;99.90
19044;DHT22;9654;52.302;8.120;2022-10-14T14:34:16;16.30;99.90
19044;DHT22;9654;52.302;8.120;2022-10-14T14:36:43;16.20;99.90
19044;DHT22;9654;52.302;8.120;2022-10-14T14:39:19;16.20;99.90
19044;DHT22;9654;52.302;8.120;2022-10-14T14:41:49;16.30;99.90
19044;DHT22;9654;52.302;8.120;2022-10-14T14:44:20;16.20;99.90
19044;DHT22;9654;52.302;8.120;2022-10-14T14:46:49;16.20;99.90
19044;DHT22;9654;52.302;8.120;2022-10-14T14:49:19;16.20;99.90
19044;DHT22;9654;52.302;8.120;2022-10-14T14:51:48;16.20;99.90
19044;DHT22;9654;52.302;8.120;2022-10-14T14:54:17;16.20;99.90
19044;DHT22;9654;52.302;8.120;2022-10-14T14:56:46;16.20;99.90
19044;DHT22;9654;52.302;8.120;2022-10-14T14:59:24;16.10;99.90
19044;DHT22;9654;52.302;8.120;2022-10-14T15:01:52;16.10;99.90
19044;DHT22;9654;52.302;8.120;2022-10-14T15:04:21;16.10;99.90
19044;DHT22;9654;52.302;8.120;2022-10-14T15:06:50;16.10;99.90
19044;DHT22;9654;52.302;8.120;2022-10-14T15:09:32;16.10;99.90
19044;DHT22;9654;52.302;8.120;2022-10-14T15:12:02;16.10;99.90
19044;DHT22;9654;52.302;8.120;2022-10-14T15:14:33;16.00;99.90
19044;DHT22;9654;52.302;8.120;2022-10-14T15:17:25;16.00;99.90
19044;DHT22;9654;52.302;8.120;2022-10-14T15:19:53;15.90;99.90
19044;DHT22;9654;52.302;8.120;2022-10-14T15:22:30;15.90;99.90
19044;DHT22;9654;52.302;8.120;2022-10-14T15:25:21;15.90;99.90
19044;DHT22;9654;52.302;8.120;2022-10-14T15:27:50;15.90;99.90
19044;DHT22;9654;52.302;8.120;2022-10-14T15:30:30;15.90;99.90
19044;DHT22;9654;52.302;8.120;2022-10-14T15:33:01;15.80;99.90
19044;DHT22;9654;52.302;8.120;2022-10-14T15:35:29;15.80;99.90
19044;DHT22;9654;52.302;8.120;2022-10-14T15:37:56;15.80;99.90
19044;DHT22;9654;52.302;8.120;2022-10-14T15:40:26;15.70;99.90
19044;DHT22;9654;52.302;8.120;2022-10-14T15:42:53;15.70;99.90
19044;DHT22;9654;52.302;8.120;2022-10-14T15:45:20;15.60;99.90
19044;DHT22;9654;52.302;8.120;2022-10-14T15:47:52;15.60;99.90
19044;DHT22;9654;52.302;8.120;2022-10-14T15:50:21;15.50;99.90
19044;DHT22;9654;52.302;8.120;2022-10-14T15:52:48;15.50;99.90
19044;DHT22;9654;52.302;8.120;2022-10-14T15:55:19;15.40;99.90
19044;DHT22;9654;52.302;8.120;2022-10-14T15:57:47;15.40;99.90
19044;DHT22;9654;52.302;8.120;2022-10-14T16:00:14;15.30;99.90
19044;DHT22;9654;52.302;8.120;2022-10-14T16:02:42;15.30;99.90
19044;DHT22;9654;52.302;8.120;2022-10-14T16:05:10;15.30;99.90
19044;DHT22;9654;52.302;8.120;2022-10-14T16:07:38;15.30;99.90
19044;DHT22;9654;52.302;8.120;2022-10-14T16:10:07;15.20;99.90
19044;DHT22;9654;52.302;8.120;2022-10-14T16:12:34;15.10;99.90
19044;DHT22;9654;52.302;8.120;2022-10-14T16:15:01;15.10;99.90
19044;DHT22;9654;52.302;8.120;2022-10-14T16:17:27;15.00;99.90
19044;DHT22;9654;52.302;8.120;2022-10-14T16:19:56;15.00;99.90